Brooks, Mississippi
Current Conditions -  °F | °C
As of 6:35 PM on Thursday 18 Dec 2014 (Local Time) from KRNV Reporting Station
Overcast Overcast  
Wind Chill: 45°   Ceiling: 3400
Heat Index: 48°   Visibility: 10mi
Dew Point: 46°   Wind: 7mph
Humidity: 92%   Direction: 10°N
Pressure: 30.19"   Gusts: NA
Location:  33.8731°N, 90.5512°W
Report Text: KRNV 190035Z AUTO 01006KT 10SM OVC034 09/08 A3019 RMK AO2 T00880076
Loading
Personal Weather Stations






























Interactive Weather Map New forecast layout! Learn more

10-Day Weather Forecast

Advertisements
Track Severe Weather on mobile